createdAt,value
2019-03-27T00:04:31.611Z,20
2019-03-27T00:09:33.679Z,21
2019-03-27T00:14:36.113Z,21
2019-03-27T00:19:38.786Z,21
2019-03-27T00:24:41.079Z,19
2019-03-27T00:29:43.524Z,22
2019-03-27T00:34:46.269Z,19
2019-03-27T00:39:48.439Z,17
2019-03-27T00:44:50.935Z,18
2019-03-27T00:49:53.405Z,19
2019-03-27T00:54:55.882Z,17
2019-03-27T00:59:58.320Z,15
2019-03-27T01:05:01.052Z,17
2019-03-27T01:10:03.297Z,19
2019-03-27T01:15:05.665Z,14
2019-03-27T01:20:08.256Z,22
2019-03-27T01:25:10.621Z,16
2019-03-27T01:30:13.070Z,17
2019-03-27T01:35:15.835Z,18
2019-03-27T01:40:17.984Z,22
2019-03-27T01:45:20.453Z,17
2019-03-27T01:50:23.096Z,17
2019-03-27T01:55:25.360Z,16
2019-03-27T02:00:27.840Z,19
2019-03-27T02:05:30.611Z,19
2019-03-27T02:10:32.771Z,14
2019-03-27T02:15:35.360Z,14
2019-03-27T02:20:37.893Z,13
2019-03-27T02:25:40.133Z,16
2019-03-27T02:30:42.603Z,17
2019-03-27T02:35:45.383Z,12
2019-03-27T02:40:47.563Z,13
2019-03-27T02:45:49.999Z,11
2019-03-27T02:50:52.539Z,11
2019-03-27T02:55:54.894Z,9
2019-03-27T03:00:57.396Z,7
2019-03-27T03:06:00.191Z,7
2019-03-27T03:11:02.455Z,8
2019-03-27T03:16:04.766Z,8
2019-03-27T03:21:07.341Z,7
2019-03-27T03:26:09.693Z,9
2019-03-27T03:31:12.189Z,12
2019-03-27T03:36:14.624Z,12
2019-03-27T03:41:17.126Z,16
2019-03-27T03:46:19.615Z,17
2019-03-27T03:51:22.113Z,19
2019-03-27T03:56:24.493Z,21
2019-03-27T04:01:27.096Z,21
2019-03-27T04:06:29.688Z,27
2019-03-27T04:11:31.872Z,21
2019-03-27T04:16:34.348Z,24
2019-03-27T04:21:36.907Z,22
2019-03-27T04:26:39.287Z,21
2019-03-27T04:31:41.727Z,20
2019-03-27T04:36:44.486Z,19
2019-03-27T04:41:46.683Z,17
2019-03-27T04:46:49.114Z,15
2019-03-27T04:51:51.647Z,19
2019-03-27T04:56:54.050Z,15
2019-03-27T05:01:56.512Z,17
2019-03-27T05:06:59.250Z,17
2019-03-27T05:12:01.411Z,20
2019-03-27T05:17:03.877Z,13
2019-03-27T05:22:06.408Z,16
2019-03-27T05:27:08.843Z,17
2019-03-27T05:32:11.286Z,16
2019-03-27T05:37:14.026Z,16
2019-03-27T05:42:16.270Z,15
2019-03-27T05:47:18.653Z,14
2019-03-27T05:52:21.222Z,21
2019-03-27T05:57:23.584Z,20
2019-03-27T06:02:26.040Z,26
2019-03-27T06:07:28.794Z,22
2019-03-27T06:12:31.037Z,23
2019-03-27T06:17:33.510Z,17
2019-03-27T06:22:35.970Z,21
2019-03-27T06:27:38.335Z,23
2019-03-27T06:32:40.872Z,19
2019-03-27T06:37:43.746Z,23
2019-03-27T06:42:45.728Z,22
2019-03-27T06:47:48.191Z,19
2019-03-27T06:52:50.671Z,18
2019-03-27T06:57:53.130Z,18
2019-03-27T07:02:55.565Z,15
2019-03-27T07:07:58.053Z,20
2019-03-27T07:13:00.497Z,18
2019-03-27T07:18:02.966Z,19
2019-03-27T07:23:05.476Z,14
2019-03-27T07:28:07.917Z,12
2019-03-27T07:33:10.316Z,10
2019-03-27T07:38:13.199Z,11
2019-03-27T07:48:17.694Z,11
2019-03-27T07:53:22.408Z,15
2019-03-27T07:58:22.587Z,16
2019-03-27T08:03:25.055Z,19
2019-03-27T08:08:27.936Z,17
2019-03-27T08:13:30.062Z,19
2019-03-27T08:18:32.690Z,21
2019-03-27T08:23:35.047Z,17
2019-03-27T08:28:37.357Z,20
2019-03-27T08:33:39.859Z,21
2019-03-27T08:38:42.600Z,22
2019-03-27T08:43:44.719Z,24
2019-03-27T08:48:47.183Z,27
2019-03-27T08:53:49.750Z,28
2019-03-27T08:58:52.502Z,25
2019-03-27T09:03:54.587Z,30
2019-03-27T09:08:57.019Z,30
2019-03-27T09:13:59.481Z,29
2019-03-27T09:19:01.988Z,35
2019-03-27T09:24:04.463Z,32
2019-03-27T09:29:08.206Z,24
2019-03-27T09:34:09.303Z,21
2019-03-27T09:39:11.756Z,22
2019-03-27T09:44:14.215Z,18
2019-03-27T09:49:16.707Z,20
2019-03-27T09:54:19.156Z,18
2019-03-27T09:59:21.590Z,18
2019-03-27T10:04:24.141Z,19
2019-03-27T10:09:26.603Z,21
2019-03-27T10:14:28.988Z,22
2019-03-27T10:19:31.516Z,22
2019-03-27T10:24:33.868Z,24
2019-03-27T10:29:36.344Z,19
2019-03-27T10:34:38.871Z,15
2019-03-27T10:39:41.385Z,15
2019-03-27T10:44:43.743Z,12
2019-03-27T10:49:46.227Z,11
2019-03-27T10:54:48.629Z,11
2019-03-27T11:04:53.942Z,11
2019-03-27T11:09:56.119Z,11
2019-03-27T11:14:58.449Z,13
2019-03-27T11:20:00.927Z,16
2019-03-27T11:25:03.421Z,14
2019-03-27T11:30:05.848Z,15
2019-03-27T11:35:08.293Z,13
2019-03-27T11:40:10.757Z,14
2019-03-27T11:45:13.213Z,15
2019-03-27T11:50:15.659Z,16
2019-03-27T11:55:18.210Z,15
2019-03-27T12:00:20.578Z,12
2019-03-27T12:05:23.112Z,14
2019-03-27T12:10:25.534Z,13
2019-03-27T12:15:27.938Z,12
2019-03-27T12:20:30.436Z,10
2019-03-27T12:25:32.922Z,10
2019-03-27T12:30:35.338Z,13
2019-03-27T12:35:37.799Z,12
2019-03-27T12:40:40.248Z,17
2019-03-27T12:45:42.756Z,12
2019-03-27T12:50:45.171Z,11
2019-03-27T12:55:47.680Z,11
2019-03-27T13:00:50.064Z,10
2019-03-27T13:05:52.542Z,13
2019-03-27T13:10:54.997Z,15
2019-03-27T13:15:57.429Z,12
2019-03-27T13:20:59.991Z,14
2019-03-27T13:26:02.457Z,9
2019-03-27T13:31:04.821Z,14
2019-03-27T13:36:07.321Z,10
2019-03-27T13:41:09.777Z,7
2019-03-27T13:46:12.183Z,9
2019-03-27T13:51:14.818Z,8
2019-03-27T13:56:17.113Z,8
2019-03-27T14:01:19.659Z,9
2019-03-27T14:06:22.009Z,9
2019-03-27T14:11:24.466Z,7
2019-03-27T14:16:26.938Z,9
2019-03-27T14:21:29.388Z,8
2019-03-27T14:26:44.259Z,8
2019-03-27T14:31:34.323Z,8
2019-03-27T14:36:36.977Z,8
2019-03-27T14:41:39.206Z,7
2019-03-27T14:46:41.707Z,8
2019-03-27T14:51:44.236Z,8
2019-03-27T14:56:46.794Z,9
2019-03-27T15:01:49.072Z,9
2019-03-27T15:06:51.770Z,8
2019-03-27T15:11:53.997Z,10
2019-03-27T15:16:56.485Z,11
2019-03-27T15:21:58.879Z,9
2019-03-27T15:27:01.372Z,10
2019-03-27T15:32:03.870Z,10
2019-03-27T15:37:06.270Z,7
2019-03-27T15:42:09.286Z,9
2019-03-27T15:47:11.157Z,7
2019-03-27T15:52:13.700Z,7
2019-03-27T15:57:16.066Z,9
2019-03-27T16:02:18.894Z,6
2019-03-27T16:07:20.977Z,8
2019-03-27T16:12:23.456Z,7
2019-03-27T16:17:25.910Z,10
2019-03-27T16:22:28.408Z,8
2019-03-27T16:27:30.894Z,8
2019-03-27T16:32:33.612Z,8
2019-03-27T16:37:35.751Z,8
2019-03-27T16:42:38.186Z,7
2019-03-27T16:47:40.664Z,9
2019-03-27T16:52:43.098Z,10
2019-03-27T16:57:45.583Z,9
2019-03-27T17:02:48.358Z,10
2019-03-27T17:07:50.468Z,8
2019-03-27T17:12:52.936Z,11
2019-03-27T17:17:55.399Z,10
2019-03-27T17:22:57.846Z,10
2019-03-27T17:28:00.294Z,17
2019-03-27T17:33:02.779Z,13
2019-03-27T17:38:05.246Z,14
2019-03-27T17:43:07.727Z,12
2019-03-27T17:48:10.135Z,13
2019-03-27T17:53:12.582Z,13
2019-03-27T17:58:15.338Z,12
2019-03-27T18:03:17.637Z,12
2019-03-27T18:08:20.023Z,15
2019-03-27T18:13:22.481Z,10
2019-03-27T18:18:24.890Z,12
2019-03-27T18:23:27.344Z,12
2019-03-27T18:28:30.145Z,10
2019-03-27T18:33:33.985Z,11
2019-03-27T18:38:34.765Z,9
2019-03-27T18:43:37.240Z,15
2019-03-27T18:48:39.985Z,21
2019-03-27T18:53:42.082Z,13
2019-03-27T18:58:45.030Z,14
2019-03-27T19:03:47.042Z,12
2019-03-27T19:08:49.457Z,12
2019-03-27T19:13:51.953Z,11
2019-03-27T19:18:54.477Z,9
2019-03-27T19:23:56.933Z,11
2019-03-27T19:28:59.672Z,10
2019-03-27T19:34:01.868Z,14
2019-03-27T19:39:04.277Z,15
2019-03-27T19:44:06.708Z,12
2019-03-27T19:49:09.142Z,14
2019-03-27T19:54:11.606Z,15
2019-03-27T19:59:14.339Z,15
2019-03-27T20:04:16.585Z,16
2019-03-27T20:09:19.009Z,14
2019-03-27T20:14:21.438Z,17
2019-03-27T20:19:23.895Z,16
2019-03-27T20:24:40.056Z,20
2019-03-27T20:29:29.109Z,16
2019-03-27T20:34:31.377Z,13
2019-03-27T20:39:33.747Z,13
2019-03-27T20:44:36.194Z,15
2019-03-27T20:49:38.734Z,11
2019-03-27T20:54:53.828Z,12
2019-03-27T20:59:43.869Z,14
2019-03-27T21:04:46.029Z,14
2019-03-27T21:09:48.471Z,16
2019-03-27T21:14:51.021Z,16
2019-03-27T21:19:53.393Z,12
2019-03-27T21:25:07.855Z,14
2019-03-27T21:30:03.347Z,20
2019-03-27T21:40:03.267Z,17
2019-03-27T21:45:05.717Z,24
2019-03-27T21:55:21.719Z,12
2019-03-27T22:00:13.048Z,12
2019-03-27T22:05:15.498Z,12
2019-03-27T22:10:17.961Z,17
2019-03-27T22:15:20.423Z,15
2019-03-27T22:20:22.926Z,16
2019-03-27T22:25:35.147Z,14
2019-03-27T22:30:27.801Z,16
2019-03-27T22:35:30.254Z,15
2019-03-27T22:40:32.765Z,14
2019-03-27T22:45:35.163Z,15
2019-03-27T22:50:37.629Z,16
2019-03-27T22:55:49.350Z,13
2019-03-27T23:00:42.585Z,17
2019-03-27T23:05:45.043Z,15
2019-03-27T23:10:47.520Z,13
2019-03-27T23:15:49.932Z,15
2019-03-27T23:20:52.381Z,15
2019-03-27T23:26:02.727Z,14
2019-03-27T23:30:57.285Z,15
2019-03-27T23:35:59.730Z,13
2019-03-27T23:41:02.234Z,16
2019-03-27T23:46:04.769Z,18
2019-03-27T23:51:07.124Z,16
